createdAt,value
2019-01-13T00:00:37.942Z,98679.43
2019-01-13T00:02:38.964Z,98678.05
2019-01-13T00:04:39.985Z,98676.36
2019-01-13T00:06:42.909Z,98680.44
2019-01-13T00:08:43.675Z,98681.11
2019-01-13T00:10:46.428Z,98685.00
2019-01-13T00:12:47.525Z,98685.91
2019-01-13T00:14:48.531Z,98684.95
2019-01-13T00:16:49.520Z,98686.30
2019-01-13T00:18:50.324Z,98689.17
2019-01-13T00:20:51.334Z,98691.28
2019-01-13T00:22:53.239Z,98690.91
2019-01-13T00:24:54.186Z,98695.87
2019-01-13T00:26:56.326Z,98698.56
2019-01-13T00:28:57.310Z,98692.70
2019-01-13T00:31:00.031Z,98693.71
2019-01-13T00:33:06.857Z,98694.72
2019-01-13T00:35:07.738Z,98702.50
2019-01-13T00:37:09.576Z,98704.70
2019-01-13T00:39:10.632Z,98705.05
2019-01-13T00:41:11.354Z,98698.27
2019-01-13T00:43:13.431Z,98700.33
2019-01-13T00:45:15.452Z,98693.51
2019-01-13T00:47:17.202Z,98693.89
2019-01-13T00:49:17.958Z,98706.43
2019-01-13T00:51:19.927Z,98704.56
2019-01-13T00:53:20.967Z,98710.08
2019-01-13T00:55:21.963Z,98704.36
2019-01-13T00:57:23.011Z,98709.83
2019-01-13T00:59:23.982Z,98709.69
2019-01-13T01:01:24.931Z,98704.73
2019-01-13T01:03:25.809Z,98698.76
2019-01-13T01:05:27.641Z,98700.33
2019-01-13T01:07:28.545Z,98714.75
2019-01-13T01:09:29.210Z,98713.63
2019-01-13T01:11:30.922Z,98713.15
2019-01-13T01:16:40.579Z,98711.77
2019-01-13T01:18:41.527Z,98707.03
2019-01-13T01:20:42.223Z,98710.02
2019-01-13T01:22:43.334Z,98709.91
2019-01-13T01:24:44.094Z,98713.23
2019-01-13T01:26:44.864Z,98711.72
2019-01-13T01:28:45.983Z,98709.46
2019-01-13T01:30:46.852Z,98708.87
2019-01-13T01:32:47.864Z,98703.06
2019-01-13T01:34:49.597Z,98707.38
2019-01-13T01:36:57.438Z,98703.43
2019-01-13T01:38:58.317Z,98699.38
2019-01-13T01:40:59.038Z,98690.84
2019-01-13T01:43:00.096Z,98687.32
2019-01-13T01:45:00.814Z,98681.58
2019-01-13T01:47:01.729Z,98679.18
2019-01-13T01:49:03.717Z,98677.73
2019-01-13T01:51:06.750Z,98679.43
2019-01-13T01:53:07.792Z,98679.00
2019-01-13T01:55:35.090Z,98674.58
2019-01-13T01:58:14.321Z,98667.91
2019-01-13T02:00:24.628Z,98675.45
2019-01-13T02:02:25.611Z,98672.09
2019-01-13T02:04:28.661Z,98679.53
2019-01-13T02:06:30.630Z,98670.46
2019-01-13T02:08:31.583Z,98666.57
2019-01-13T02:10:33.736Z,98663.59
2019-01-13T02:12:34.663Z,98659.47
2019-01-13T02:14:35.527Z,98652.98
2019-01-13T02:16:36.572Z,98666.86
2019-01-13T02:18:38.526Z,98674.58
2019-01-13T02:20:39.437Z,98670.16
2019-01-13T02:22:40.356Z,98664.50
2019-01-13T02:24:41.308Z,98663.62
2019-01-13T02:26:42.130Z,98654.03
2019-01-13T02:28:43.027Z,98653.63
2019-01-13T02:30:49.111Z,98648.65
2019-01-13T02:32:46.630Z,98649.18
2019-01-13T02:34:47.727Z,98651.16
2019-01-13T02:36:48.785Z,98646.59
2019-01-13T02:38:49.483Z,98636.37
2019-01-13T02:40:50.484Z,98641.17
2019-01-13T02:42:51.392Z,98642.47
2019-01-13T02:44:52.043Z,98645.11
2019-01-13T02:46:53.028Z,98635.61
2019-01-13T02:48:53.966Z,98644.83
2019-01-13T02:50:54.693Z,98641.17
2019-01-13T02:52:55.730Z,98648.33
2019-01-13T02:54:56.691Z,98637.48
2019-01-13T02:56:59.397Z,98644.16
2019-01-13T02:59:00.521Z,98645.34
2019-01-13T03:01:01.444Z,98634.84
2019-01-13T03:03:02.376Z,98631.43
2019-01-13T03:05:06.806Z,98619.05
2019-01-13T03:07:08.026Z,98619.00
2019-01-13T03:09:46.667Z,98602.59
2019-01-13T03:12:05.270Z,98619.39
2019-01-13T03:14:06.136Z,98604.55
2019-01-13T03:16:08.270Z,98609.59
2019-01-13T03:18:09.518Z,98599.84
2019-01-13T03:20:11.624Z,98591.64
2019-01-13T03:22:12.377Z,98579.50
2019-01-13T03:24:13.345Z,98597.36
2019-01-13T03:26:14.358Z,98597.21
2019-01-13T03:28:15.076Z,98587.38
2019-01-13T03:30:19.302Z,98587.66
2019-01-13T03:32:21.039Z,98589.00
2019-01-13T03:34:21.992Z,98599.95
2019-01-13T03:36:23.124Z,98595.29
2019-01-13T03:38:23.870Z,98592.22
2019-01-13T03:40:24.793Z,98598.36
2019-01-13T03:42:25.827Z,98610.50
2019-01-13T03:44:26.539Z,98602.88
2019-01-13T03:46:27.499Z,98606.62
2019-01-13T03:48:32.395Z,98598.98
2019-01-13T03:50:34.268Z,98594.19
2019-01-13T03:52:36.228Z,98594.05
2019-01-13T03:54:37.190Z,98594.38
2019-01-13T03:56:38.090Z,98598.27
2019-01-13T03:58:38.789Z,98606.09
2019-01-13T04:00:39.668Z,98597.21
2019-01-13T04:02:40.365Z,98589.96
2019-01-13T04:04:41.333Z,98604.31
2019-01-13T04:06:42.261Z,98594.66
2019-01-13T04:08:44.956Z,98598.70
2019-01-13T04:10:45.832Z,98596.54
2019-01-13T04:12:46.564Z,98593.76
2019-01-13T04:14:48.530Z,98594.48
2019-01-13T04:16:49.575Z,98590.54
2019-01-13T04:18:53.338Z,98578.44
2019-01-13T04:20:53.966Z,98574.03
2019-01-13T04:22:57.018Z,98561.84
2019-01-13T04:24:57.808Z,98562.95
2019-01-13T04:26:58.480Z,98565.77
2019-01-13T04:28:59.197Z,98562.08
2019-01-13T04:31:00.348Z,98552.67
2019-01-13T04:33:01.411Z,98549.30
2019-01-13T04:35:04.036Z,98550.22
2019-01-13T04:37:06.061Z,98550.55
2019-01-13T04:39:14.756Z,98547.53
2019-01-13T04:41:15.828Z,98534.09
2019-01-13T04:43:17.572Z,98528.86
2019-01-13T04:45:18.287Z,98531.09
2019-01-13T04:47:19.017Z,98525.47
2019-01-13T04:49:19.701Z,98525.77
2019-01-13T04:51:20.356Z,98515.09
2019-01-13T04:53:23.249Z,98516.17
2019-01-13T04:55:24.263Z,98510.17
2019-01-13T04:57:24.989Z,98501.24
2019-01-13T04:59:25.756Z,98498.20
2019-01-13T05:01:34.381Z,98496.54
2019-01-13T05:03:31.706Z,98476.31
2019-01-13T05:05:34.314Z,98477.91
2019-01-13T05:07:35.085Z,98468.39
2019-01-13T05:09:35.709Z,98463.20
2019-01-13T05:11:36.753Z,98461.39
2019-01-13T05:13:37.414Z,98454.50
2019-01-13T05:15:38.449Z,98459.36
2019-01-13T05:17:39.251Z,98464.84
2019-01-13T05:19:40.020Z,98467.09
2019-01-13T05:21:40.977Z,98469.09
2019-01-13T05:23:41.932Z,98467.28
2019-01-13T05:25:42.938Z,98454.17
2019-01-13T05:27:44.289Z,98449.05
2019-01-13T05:29:47.176Z,98449.47
2019-01-13T05:31:47.916Z,98448.31
2019-01-13T05:33:48.583Z,98448.36
2019-01-13T05:35:50.479Z,98453.05
2019-01-13T05:37:51.275Z,98446.24
2019-01-13T05:39:51.934Z,98456.16
2019-01-13T05:41:52.864Z,98445.02
2019-01-13T05:43:53.614Z,98445.94
2019-01-13T05:45:54.587Z,98427.70
2019-01-13T05:47:55.580Z,98425.41
2019-01-13T05:49:56.593Z,98420.89
2019-01-13T05:52:04.617Z,98418.93
2019-01-13T05:54:06.589Z,98419.36
2019-01-13T05:56:07.307Z,98409.55
2019-01-13T05:58:10.310Z,98396.13
2019-01-13T06:00:14.402Z,98399.78
2019-01-13T06:02:22.073Z,98390.89
2019-01-13T06:04:25.044Z,98379.85
2019-01-13T06:06:29.015Z,98381.63
2019-01-13T06:08:32.021Z,98380.52
2019-01-13T06:10:32.718Z,98374.34
2019-01-13T06:12:33.718Z,98367.38
2019-01-13T06:14:36.700Z,98361.07
2019-01-13T06:16:37.741Z,98356.48
2019-01-13T06:18:38.765Z,98363.48
2019-01-13T06:20:40.850Z,98365.80
2019-01-13T06:22:41.570Z,98367.40
2019-01-13T06:24:42.309Z,98367.09
2019-01-13T06:26:43.421Z,98366.73
2019-01-13T06:28:44.372Z,98346.68
2019-01-13T06:30:55.134Z,98331.66
2019-01-13T06:32:56.177Z,98338.41
2019-01-13T06:34:56.956Z,98343.76
2019-01-13T06:36:57.756Z,98343.76
2019-01-13T06:39:05.966Z,98348.77
2019-01-13T06:41:07.921Z,98342.94
2019-01-13T06:43:12.834Z,98344.56
2019-01-13T06:45:16.022Z,98328.28
2019-01-13T06:47:20.792Z,98339.13
2019-01-13T06:49:21.418Z,98329.57
2019-01-13T06:51:28.930Z,98330.05
2019-01-13T06:53:29.646Z,98324.94
2019-01-13T06:55:32.556Z,98327.86
2019-01-13T06:57:33.432Z,98331.55
2019-01-13T06:59:34.087Z,98327.02
2019-01-13T07:01:34.838Z,98339.36
2019-01-13T07:03:35.871Z,98329.64
2019-01-13T07:05:36.900Z,98329.00
2019-01-13T07:07:37.624Z,98334.71
2019-01-13T07:09:38.561Z,98338.43
2019-01-13T07:11:40.557Z,98344.61
2019-01-13T07:13:41.215Z,98355.64
2019-01-13T07:15:41.938Z,98360.83
2019-01-13T07:17:42.871Z,98357.62
2019-01-13T07:19:43.919Z,98357.80
2019-01-13T07:21:44.708Z,98363.45
2019-01-13T07:23:45.418Z,98351.27
2019-01-13T07:25:46.094Z,98355.18
2019-01-13T07:27:46.861Z,98359.38
2019-01-13T07:29:47.547Z,98358.06
2019-01-13T07:31:48.196Z,98345.25
2019-01-13T07:33:49.246Z,98355.81
2019-01-13T07:35:55.228Z,98348.48
2019-01-13T07:37:57.207Z,98351.07
2019-01-13T07:39:58.243Z,98341.66
2019-01-13T07:41:59.218Z,98343.62
2019-01-13T07:43:59.944Z,98345.25
2019-01-13T07:46:00.975Z,98338.17
2019-01-13T07:48:01.566Z,98342.86
2019-01-13T07:50:05.533Z,98340.09
2019-01-13T07:52:08.290Z,98337.86
2019-01-13T07:54:09.371Z,98337.17
2019-01-13T07:56:10.296Z,98337.53
2019-01-13T07:58:12.308Z,98326.16
2019-01-13T08:00:19.593Z,98322.59
2019-01-13T08:02:20.603Z,98318.88
2019-01-13T08:04:21.336Z,98318.58
2019-01-13T08:06:22.337Z,98314.98
2019-01-13T08:08:23.440Z,98312.40
2019-01-13T08:10:24.461Z,98316.29
2019-01-13T08:12:25.216Z,98315.46
2019-01-13T08:14:25.855Z,98310.27
2019-01-13T08:16:26.875Z,98306.39
2019-01-13T08:18:27.834Z,98303.64
2019-01-13T08:20:29.404Z,98305.56
2019-01-13T08:22:30.376Z,98297.62
2019-01-13T08:24:31.280Z,98291.14
2019-01-13T08:26:32.232Z,98284.82
2019-01-13T08:28:33.240Z,98273.02
2019-01-13T08:30:34.085Z,98273.02
2019-01-13T08:32:35.011Z,98267.49
2019-01-13T08:34:35.764Z,98270.42
2019-01-13T08:36:36.694Z,98266.05
2019-01-13T08:38:37.676Z,98269.13
2019-01-13T08:40:38.766Z,98263.94
2019-01-13T08:42:39.729Z,98255.84
2019-01-13T08:44:40.770Z,98256.86
2019-01-13T08:46:41.671Z,98252.26
2019-01-13T08:48:42.749Z,98239.33
2019-01-13T08:50:43.870Z,98235.44
2019-01-13T08:52:44.953Z,98226.34
2019-01-13T08:54:47.000Z,98236.04
2019-01-13T08:56:47.761Z,98225.37
2019-01-13T08:58:48.786Z,98208.02
2019-01-13T09:00:49.896Z,98212.08
2019-01-13T09:02:51.026Z,98214.95
2019-01-13T09:04:51.752Z,98197.30
2019-01-13T09:06:52.829Z,98211.11
2019-01-13T09:08:53.554Z,98200.39
2019-01-13T09:10:54.284Z,98182.70
2019-01-13T09:12:56.913Z,98191.14
2019-01-13T09:14:57.562Z,98178.66
2019-01-13T09:16:58.629Z,98189.84
2019-01-13T09:18:59.708Z,98185.14
2019-01-13T09:21:00.589Z,98181.58
2019-01-13T09:23:01.704Z,98187.91
2019-01-13T09:25:04.885Z,98185.80
2019-01-13T09:27:05.843Z,98180.77
2019-01-13T09:29:06.796Z,98185.31
2019-01-13T09:31:07.815Z,98190.34
2019-01-13T09:33:08.485Z,98190.34
2019-01-13T09:35:09.705Z,98179.30
2019-01-13T09:37:10.465Z,98174.92
2019-01-13T09:39:11.205Z,98176.06
2019-01-13T09:41:11.979Z,98154.46
2019-01-13T09:43:12.917Z,98162.42
2019-01-13T09:45:13.711Z,98157.23
2019-01-13T09:47:14.469Z,98154.30
2019-01-13T09:49:15.484Z,98153.00
2019-01-13T09:51:16.660Z,98150.55
2019-01-13T09:53:17.412Z,98148.60
2019-01-13T09:55:19.648Z,98144.05
2019-01-13T09:57:20.303Z,98139.02
2019-01-13T09:59:21.248Z,98124.89
2019-01-13T10:01:22.145Z,98141.94
2019-01-13T10:03:22.877Z,98139.34
2019-01-13T10:05:24.057Z,98136.09
2019-01-13T10:07:25.267Z,98123.27
2019-01-13T10:09:26.227Z,98317.97
2019-01-13T10:11:27.173Z,98283.38
2019-01-13T10:13:28.204Z,98250.58
2019-01-13T10:15:29.928Z,98200.39
2019-01-13T10:17:30.777Z,98153.45
2019-01-13T10:19:31.750Z,98115.28
2019-01-13T10:21:32.472Z,98114.64
2019-01-13T10:23:33.159Z,98124.06
2019-01-13T10:25:34.099Z,98114.80
2019-01-13T10:27:35.022Z,98107.33
2019-01-13T10:29:37.085Z,98095.48
2019-01-13T10:31:38.843Z,98093.52
2019-01-13T10:33:39.567Z,98089.45
2019-01-13T10:35:42.589Z,98077.27
2019-01-13T10:37:43.465Z,98077.75
2019-01-13T10:39:44.558Z,98070.78
2019-01-13T10:41:45.383Z,98056.16
2019-01-13T10:43:46.233Z,98061.52
2019-01-13T10:45:47.161Z,98057.28
2019-01-13T10:47:48.048Z,98045.25
2019-01-13T10:49:48.720Z,98048.48
2019-01-13T10:51:49.570Z,98053.69
2019-01-13T10:53:50.557Z,98043.11
2019-01-13T10:55:51.493Z,98048.92
2019-01-13T10:57:53.517Z,98043.55
2019-01-13T10:59:54.577Z,98045.34
2019-01-13T11:01:58.834Z,98042.41
2019-01-13T11:03:59.626Z,98044.05
2019-01-13T11:06:00.421Z,98045.98
2019-01-13T11:08:02.723Z,98036.91
2019-01-13T11:10:18.532Z,98031.54
2019-01-13T11:12:19.692Z,98031.88
2019-01-13T11:14:22.118Z,98038.55
2019-01-13T11:16:22.995Z,98040.16
2019-01-13T11:18:24.829Z,98027.52
2019-01-13T11:20:28.851Z,98025.88
2019-01-13T11:22:29.865Z,98021.33
2019-01-13T11:24:30.670Z,98017.92
2019-01-13T11:26:31.401Z,98014.52
2019-01-13T11:28:32.553Z,98010.42
2019-01-13T11:30:34.261Z,97987.17
2019-01-13T11:32:34.979Z,97983.11
2019-01-13T11:34:35.936Z,97973.49
2019-01-13T11:36:37.742Z,97972.80
2019-01-13T11:38:38.509Z,97972.80
2019-01-13T11:40:39.204Z,97952.15
2019-01-13T11:42:49.431Z,97947.15
2019-01-13T11:44:51.361Z,97923.95
2019-01-13T11:46:52.106Z,97923.00
2019-01-13T11:48:52.936Z,97934.23
2019-01-13T11:50:53.685Z,97926.05
2019-01-13T11:52:56.257Z,97917.63
2019-01-13T11:54:57.495Z,97898.58
2019-01-13T11:56:58.460Z,97899.84
2019-01-13T11:59:00.840Z,97895.97
2019-01-13T12:01:01.727Z,97891.27
2019-01-13T12:03:06.815Z,97908.31
2019-01-13T12:05:07.990Z,97910.59
2019-01-13T12:07:09.067Z,97907.01
2019-01-13T12:09:15.954Z,97899.20
2019-01-13T12:11:17.777Z,97902.30
2019-01-13T12:13:24.547Z,97897.09
2019-01-13T12:15:25.382Z,97902.94
2019-01-13T12:17:35.341Z,97906.69
2019-01-13T12:19:36.115Z,97912.67
2019-01-13T12:21:37.091Z,97913.97
2019-01-13T12:23:37.770Z,97914.14
2019-01-13T12:25:38.944Z,97922.41
2019-01-13T12:27:39.745Z,97928.23
2019-01-13T12:29:40.855Z,97914.11
2019-01-13T12:31:41.633Z,97908.41
2019-01-13T12:33:42.399Z,97905.32
2019-01-13T12:35:43.325Z,97906.30
2019-01-13T12:37:44.136Z,97896.84
2019-01-13T12:39:46.194Z,97905.32
2019-01-13T12:41:47.011Z,97900.44
2019-01-13T12:43:48.227Z,97886.94
2019-01-13T12:45:49.034Z,97870.17
2019-01-13T12:47:50.424Z,97881.06
2019-01-13T12:49:51.215Z,97890.34
2019-01-13T12:51:52.326Z,97883.98
2019-01-13T12:53:53.271Z,97875.37
2019-01-13T12:55:54.316Z,97869.53
2019-01-13T12:57:55.235Z,97872.45
2019-01-13T12:59:55.967Z,97880.92
2019-01-13T13:01:56.792Z,97867.84
2019-01-13T13:03:57.711Z,97870.41
2019-01-13T13:05:59.065Z,97853.18
2019-01-13T13:08:00.725Z,97864.53
2019-01-13T13:10:03.557Z,97850.71
2019-01-13T13:12:04.774Z,97853.31
2019-01-13T13:14:05.884Z,97852.50
2019-01-13T13:16:08.036Z,97847.58
2019-01-13T13:18:09.566Z,97856.33
2019-01-13T13:20:13.255Z,97840.72
2019-01-13T13:22:14.267Z,97839.73
2019-01-13T13:24:15.366Z,97833.53
2019-01-13T13:26:16.490Z,97816.00
2019-01-13T13:28:19.120Z,97808.86
2019-01-13T13:30:23.108Z,97793.78
2019-01-13T13:32:24.229Z,97810.07
2019-01-13T13:34:25.390Z,97811.47
2019-01-13T13:36:26.461Z,97814.56
2019-01-13T13:38:27.673Z,97810.52
2019-01-13T13:40:30.008Z,97811.15
2019-01-13T13:42:31.133Z,97804.42
2019-01-13T13:44:32.379Z,97815.19
2019-01-13T13:46:33.592Z,97801.73
2019-01-13T13:48:34.744Z,97807.25
2019-01-13T13:50:36.022Z,97807.88
2019-01-13T13:52:37.224Z,97803.16
2019-01-13T13:54:38.459Z,97789.66
2019-01-13T13:56:39.616Z,97784.41
2019-01-13T13:58:40.561Z,97782.75
2019-01-13T14:00:41.302Z,97782.07
2019-01-13T14:02:42.169Z,97787.77
2019-01-13T14:04:43.185Z,97790.91
2019-01-13T14:06:44.108Z,97789.97
2019-01-13T14:08:45.117Z,97781.18
2019-01-13T14:10:45.931Z,97789.80
2019-01-13T14:12:47.068Z,97787.69
2019-01-13T14:14:50.589Z,97775.48
2019-01-13T14:16:52.969Z,97776.11
2019-01-13T14:18:54.304Z,97790.91
2019-01-13T14:20:55.132Z,97780.02
2019-01-13T14:22:55.952Z,97791.54
2019-01-13T14:24:56.655Z,97794.69
2019-01-13T14:26:57.331Z,97800.02
2019-01-13T14:28:58.067Z,97795.67
2019-01-13T14:30:59.000Z,97781.54
2019-01-13T14:33:00.130Z,97780.55
2019-01-13T14:35:07.497Z,97768.13
2019-01-13T14:37:08.343Z,97764.84
2019-01-13T14:39:09.495Z,97770.41
2019-01-13T14:41:10.511Z,97772.39
2019-01-13T14:43:11.463Z,97767.05
2019-01-13T14:45:14.711Z,97759.42
2019-01-13T14:47:16.211Z,97758.62
2019-01-13T14:49:16.924Z,97742.15
2019-01-13T14:51:18.058Z,97733.35
2019-01-13T14:53:21.228Z,97722.81
2019-01-13T14:55:22.107Z,97738.42
2019-01-13T14:57:23.063Z,97737.44
2019-01-13T14:59:23.829Z,97735.95
2019-01-13T15:01:25.859Z,97736.77
2019-01-13T15:04:16.813Z,97742.45
2019-01-13T15:06:28.936Z,97735.33
2019-01-13T15:08:29.852Z,97731.42
2019-01-13T15:10:32.865Z,97739.05
2019-01-13T15:12:33.605Z,97729.77
2019-01-13T15:14:34.628Z,97732.36
2019-01-13T15:16:39.018Z,97734.66
2019-01-13T15:18:40.253Z,97718.31
2019-01-13T15:20:44.167Z,97718.99
2019-01-13T15:22:45.406Z,97719.84
2019-01-13T15:24:50.065Z,97743.09
2019-01-13T15:26:51.820Z,97741.52
2019-01-13T15:28:52.781Z,97719.64
2019-01-13T15:30:53.873Z,97713.36
2019-01-13T15:32:55.070Z,97722.11
2019-01-13T15:34:56.216Z,97710.17
2019-01-13T15:36:58.391Z,97713.70
2019-01-13T15:38:59.602Z,97718.83
2019-01-13T15:41:00.742Z,97705.20
2019-01-13T15:43:01.875Z,97721.56
2019-01-13T15:45:06.030Z,97695.05
2019-01-13T15:47:07.207Z,97690.27
2019-01-13T15:49:08.376Z,97683.27
2019-01-13T15:51:09.087Z,97703.61
2019-01-13T15:53:10.253Z,97706.68
2019-01-13T15:55:11.104Z,97711.91
2019-01-13T15:57:11.821Z,97709.49
2019-01-13T15:59:12.966Z,97704.78
2019-01-13T16:01:13.944Z,97691.53
2019-01-13T16:03:15.148Z,97696.92
2019-01-13T16:05:16.318Z,97700.05
2019-01-13T16:07:17.382Z,97696.19
2019-01-13T16:09:18.160Z,97697.67
2019-01-13T16:11:18.829Z,97694.95
2019-01-13T16:13:19.800Z,97680.27
2019-01-13T16:15:20.950Z,97676.97
2019-01-13T16:17:22.036Z,97684.70
2019-01-13T16:19:23.641Z,97674.97
2019-01-13T16:21:24.615Z,97659.36
2019-01-13T16:23:25.352Z,97668.15
2019-01-13T16:25:25.984Z,97671.38
2019-01-13T16:27:26.905Z,97673.56
2019-01-13T16:29:27.851Z,97673.01
2019-01-13T16:31:28.525Z,97658.88
2019-01-13T16:33:29.295Z,97669.18
2019-01-13T16:35:30.093Z,97670.33
2019-01-13T16:37:30.851Z,97676.34
2019-01-13T16:39:31.573Z,97663.88
2019-01-13T16:41:32.290Z,97673.50
2019-01-13T16:43:32.934Z,97668.63
2019-01-13T16:45:33.844Z,97661.50
2019-01-13T16:47:34.809Z,97658.84
2019-01-13T16:49:35.735Z,97670.73
2019-01-13T16:51:36.498Z,97670.73
2019-01-13T16:53:37.440Z,97672.41
2019-01-13T16:55:38.452Z,97662.69
2019-01-13T16:57:39.126Z,97652.16
2019-01-13T16:59:42.303Z,97663.97
2019-01-13T17:01:43.173Z,97653.52
2019-01-13T17:03:44.177Z,97651.84
2019-01-13T17:05:45.012Z,97650.97
2019-01-13T17:07:46.220Z,97651.04
2019-01-13T17:09:47.183Z,97647.45
2019-01-13T17:11:48.219Z,97640.29
2019-01-13T17:13:49.895Z,97644.22
2019-01-13T17:15:50.826Z,97629.66
2019-01-13T17:17:51.587Z,97651.16
2019-01-13T17:19:52.378Z,97662.00
2019-01-13T17:21:53.507Z,97649.30
2019-01-13T17:23:54.309Z,97669.37
2019-01-13T17:25:55.349Z,97645.65
2019-01-13T17:27:56.468Z,97639.55
2019-01-13T17:29:57.772Z,97638.61
2019-01-13T17:31:58.709Z,97634.89
2019-01-13T17:34:01.206Z,97635.39
2019-01-13T17:36:02.480Z,97638.13
2019-01-13T17:38:04.200Z,97636.38
2019-01-13T17:40:13.885Z,97611.69
2019-01-13T17:42:14.971Z,97629.53
2019-01-13T17:44:15.777Z,97623.09
2019-01-13T17:46:17.550Z,97613.05
2019-01-13T17:48:24.620Z,97619.95
2019-01-13T17:50:26.644Z,97617.32
2019-01-13T17:52:31.836Z,97605.36
2019-01-13T17:54:34.158Z,97610.69
2019-01-13T17:56:35.416Z,97616.58
2019-01-13T17:58:36.211Z,97612.30
2019-01-13T18:03:12.792Z,97616.64
2019-01-13T18:05:15.626Z,97601.14
2019-01-13T18:07:19.964Z,97609.27
2019-01-13T18:09:21.080Z,97611.38
2019-01-13T18:11:22.092Z,97612.23
2019-01-13T18:13:28.230Z,97610.75
2019-01-13T18:15:30.421Z,97611.17
2019-01-13T18:17:34.952Z,97619.97
2019-01-13T18:19:36.113Z,97619.48
2019-01-13T18:21:38.164Z,97610.44
2019-01-13T18:23:39.372Z,97605.17
2019-01-13T18:25:40.664Z,97603.44
2019-01-13T18:27:46.116Z,97599.38
2019-01-13T18:29:45.031Z,97595.63
2019-01-13T18:31:48.934Z,97600.09
2019-01-13T18:33:49.861Z,97609.70
2019-01-13T18:35:51.312Z,97592.94
2019-01-13T18:37:54.508Z,97610.88
2019-01-13T18:39:55.742Z,97595.14
2019-01-13T18:42:04.198Z,97590.30
2019-01-13T18:44:05.238Z,97599.72
2019-01-13T18:46:06.591Z,97591.03
2019-01-13T18:48:08.839Z,97597.98
2019-01-13T18:50:17.747Z,97589.62
2019-01-13T18:52:18.935Z,97585.84
2019-01-13T18:54:19.897Z,97572.27
2019-01-13T18:56:26.213Z,97575.80
2019-01-13T18:58:26.955Z,97575.62
2019-01-13T19:00:28.893Z,97571.53
2019-01-13T19:05:04.565Z,97579.21
2019-01-13T19:07:10.113Z,97573.75
2019-01-13T19:09:08.779Z,97576.23
2019-01-13T19:11:13.510Z,97581.13
2019-01-13T19:13:41.338Z,97578.53
2019-01-13T19:15:44.315Z,97580.08
2019-01-13T19:17:45.150Z,97577.91
2019-01-13T19:19:45.797Z,97582.06
2019-01-13T19:21:46.898Z,97595.94
2019-01-13T19:23:47.956Z,97578.70
2019-01-13T19:25:49.029Z,97576.48
2019-01-13T19:27:50.073Z,97577.16
2019-01-13T19:29:50.810Z,97583.73
2019-01-13T19:31:52.891Z,97594.00
2019-01-13T19:39:06.566Z,97593.88
2019-01-13T19:41:07.543Z,97606.94
2019-01-13T19:43:08.316Z,97596.30
2019-01-13T19:45:15.586Z,97594.56
2019-01-13T19:47:17.773Z,97601.80
2019-01-13T19:49:18.815Z,97593.89
2019-01-13T19:54:22.558Z,97583.16
2019-01-13T19:56:23.767Z,97585.77
2019-01-13T19:58:27.847Z,97594.31
2019-01-13T20:00:31.323Z,97591.28
2019-01-13T20:02:35.187Z,97589.88
2019-01-13T20:04:36.331Z,97563.84
2019-01-13T20:06:37.156Z,97575.80
2019-01-13T20:08:38.003Z,97596.38
2019-01-13T20:10:41.590Z,97603.86
2019-01-13T20:12:42.426Z,97582.00
2019-01-13T20:14:43.533Z,97605.67
2019-01-13T20:16:44.377Z,97620.48
2019-01-13T20:18:45.062Z,97608.34
2019-01-13T20:26:21.854Z,97622.90
2019-01-13T20:34:01.433Z,97716.93
2019-01-13T20:36:02.459Z,97707.48
2019-01-13T20:38:05.937Z,97716.78
2019-01-13T20:40:13.005Z,97722.41
2019-01-13T20:42:16.176Z,97720.30
2019-01-13T20:44:17.114Z,97718.88
2019-01-13T20:46:19.999Z,97720.23
2019-01-13T20:52:09.355Z,97733.03
2019-01-13T20:54:10.356Z,97733.22
2019-01-13T20:56:11.543Z,97739.38
2019-01-13T20:58:15.292Z,97732.90
2019-01-13T21:00:21.791Z,97722.39
2019-01-13T21:02:24.583Z,97698.59
2019-01-13T21:04:25.505Z,97708.95
2019-01-13T21:06:30.920Z,97700.37
2019-01-13T21:08:29.239Z,97702.75
2019-01-13T21:10:30.192Z,97705.19
2019-01-13T21:12:30.899Z,97712.80
2019-01-13T21:14:31.849Z,97718.29
2019-01-13T21:16:32.925Z,97710.04
2019-01-13T21:18:33.683Z,97711.50
2019-01-13T21:20:52.751Z,97716.02
2019-01-13T21:22:53.825Z,97717.77
2019-01-13T21:24:54.750Z,97725.70
2019-01-13T21:26:55.427Z,97717.23
2019-01-13T21:28:56.258Z,97730.06
2019-01-13T21:30:57.010Z,97722.75
2019-01-13T21:33:12.354Z,97732.44
2019-01-13T21:35:13.712Z,97724.36
2019-01-13T21:37:15.391Z,97720.47
2019-01-13T21:39:16.125Z,97735.37
2019-01-13T21:41:17.315Z,97733.25
2019-01-13T21:43:18.492Z,97749.64
2019-01-13T21:45:21.086Z,97743.16
2019-01-13T21:47:22.344Z,97751.26
2019-01-13T21:49:24.416Z,97752.06
2019-01-13T21:51:25.388Z,97753.84
2019-01-13T21:53:33.879Z,97759.34
2019-01-13T21:55:34.641Z,97741.48
2019-01-13T21:57:35.508Z,97742.64
2019-01-13T21:59:36.522Z,97746.23
2019-01-13T22:01:37.569Z,97740.86
2019-01-13T22:03:39.311Z,97749.62
2019-01-13T22:05:41.188Z,97745.41
2019-01-13T22:07:42.554Z,97747.04
2019-01-13T22:09:44.524Z,97750.59
2019-01-13T22:11:45.395Z,97752.55
2019-01-13T22:13:48.885Z,97753.96
2019-01-13T22:15:52.290Z,97759.31
2019-01-13T22:17:54.401Z,97759.94
2019-01-13T22:20:05.666Z,97764.88
2019-01-13T22:21:58.206Z,97758.67
2019-01-13T22:23:59.008Z,97756.42
2019-01-13T22:26:06.308Z,97752.95
2019-01-13T22:28:07.341Z,97756.80
2019-01-13T22:30:17.935Z,97745.66
2019-01-13T22:32:18.874Z,97751.03
2019-01-13T22:34:19.957Z,97751.20
2019-01-13T22:36:22.007Z,97755.59
2019-01-13T22:38:24.816Z,97750.58
2019-01-13T22:40:25.779Z,97749.78
2019-01-13T22:42:52.338Z,97744.94
2019-01-13T22:45:24.813Z,97752.34
2019-01-13T22:47:30.944Z,97763.07
2019-01-13T22:49:40.837Z,97768.72
2019-01-13T22:51:41.763Z,97757.97
2019-01-13T22:56:54.229Z,97761.80
2019-01-13T22:58:41.930Z,97753.05
2019-01-13T23:00:46.934Z,97745.59
2019-01-13T23:02:50.265Z,97749.70
2019-01-13T23:04:51.153Z,97754.23
2019-01-13T23:06:52.096Z,97751.95
2019-01-13T23:08:53.938Z,97750.38
2019-01-13T23:10:54.797Z,97759.60
2019-01-13T23:12:56.631Z,97758.27
2019-01-13T23:14:57.612Z,97763.61
2019-01-13T23:20:17.750Z,97764.62
2019-01-13T23:22:18.905Z,97770.58
2019-01-13T23:24:19.752Z,97775.37
2019-01-13T23:26:20.939Z,97762.72
2019-01-13T23:28:25.201Z,97764.04
2019-01-13T23:35:34.641Z,97767.40
2019-01-13T23:37:36.613Z,97776.02
2019-01-13T23:39:40.844Z,97773.27
2019-01-13T23:41:41.572Z,97770.55
2019-01-13T23:43:44.245Z,97774.78
2019-01-13T23:45:45.339Z,97778.01
2019-01-13T23:47:49.463Z,97779.62
2019-01-13T23:51:24.941Z,97771.19
2019-01-13T23:52:24.589Z,97763.67
2019-01-13T23:54:25.632Z,97779.59
2019-01-13T23:56:26.455Z,97769.19
2019-01-13T23:58:27.579Z,97779.61
